createdAt,value
2023-05-07T00:01:41.765Z,93626.19
2023-05-07T00:04:09.696Z,93622.34
2023-05-07T00:06:37.241Z,93627.78
2023-05-07T00:09:05.631Z,93631.53
2023-05-07T00:11:35.060Z,93625.03
2023-05-07T00:14:03.886Z,93629.09
2023-05-07T00:16:31.245Z,93631.09
2023-05-07T00:18:58.880Z,93636.37
2023-05-07T00:21:28.963Z,93637.84
2023-05-07T00:23:56.261Z,93635.72
2023-05-07T00:26:23.867Z,93635.50
2023-05-07T00:28:51.999Z,93634.97
2023-05-07T00:31:19.624Z,93630.69
2023-05-07T00:33:47.871Z,93634.09
2023-05-07T00:36:15.151Z,93636.63
2023-05-07T00:38:42.439Z,93646.56
2023-05-07T00:41:10.010Z,93647.88
2023-05-07T00:43:37.304Z,93644.72
2023-05-07T00:46:04.765Z,93644.53
2023-05-07T00:48:33.007Z,93647.31
2023-05-07T00:51:00.462Z,93652.84
2023-05-07T00:53:27.808Z,93658.50
2023-05-07T00:55:56.863Z,93662.00
2023-05-07T00:58:25.216Z,93659.78
2023-05-07T01:00:53.068Z,93659.78
2023-05-07T01:03:21.860Z,93657.78
2023-05-07T01:05:51.041Z,93654.75
2023-05-07T01:08:19.716Z,93662.22
2023-05-07T01:10:47.951Z,93653.47
2023-05-07T01:13:16.367Z,93656.41
2023-05-07T01:15:44.777Z,93657.00
2023-05-07T01:18:12.671Z,93659.72
2023-05-07T01:20:40.085Z,93659.72
2023-05-07T01:23:08.333Z,93656.56
2023-05-07T01:25:36.283Z,93650.75
2023-05-07T01:28:03.708Z,93651.56
2023-05-07T01:30:33.073Z,93655.31
2023-05-07T01:33:10.458Z,93656.22
2023-05-07T01:35:41.765Z,93648.94
2023-05-07T01:38:10.282Z,93647.38
2023-05-07T01:40:37.930Z,93644.56
2023-05-07T01:43:06.566Z,93643.09
2023-05-07T01:45:35.524Z,93647.66
2023-05-07T01:48:04.353Z,93647.66
2023-05-07T01:50:33.474Z,93646.88
2023-05-07T01:53:02.701Z,93645.16
2023-05-07T01:55:30.340Z,93643.81
2023-05-07T01:57:57.726Z,93644.25
2023-05-07T02:00:25.605Z,93639.31
2023-05-07T02:02:54.079Z,93633.75
2023-05-07T02:05:22.255Z,93634.13
2023-05-07T02:07:50.679Z,93630.09
2023-05-07T02:10:18.660Z,93626.72
2023-05-07T02:12:46.019Z,93625.88
2023-05-07T02:15:13.410Z,93625.28
2023-05-07T02:18:00.482Z,93619.88
2023-05-07T02:20:28.090Z,93607.97
2023-05-07T02:22:58.553Z,93608.47
2023-05-07T02:25:26.620Z,93614.56
2023-05-07T02:27:53.966Z,93598.28
2023-05-07T02:30:22.985Z,93600.34
2023-05-07T02:32:52.167Z,93600.81
2023-05-07T02:35:19.820Z,93599.97
2023-05-07T02:37:47.345Z,93599.94
2023-05-07T02:40:15.149Z,93600.56
2023-05-07T02:42:42.388Z,93596.13
2023-05-07T02:45:10.457Z,93589.78
2023-05-07T02:47:38.841Z,93592.25
2023-05-07T02:50:07.089Z,93594.47
2023-05-07T02:52:35.573Z,93595.84
2023-05-07T02:55:03.771Z,93592.97
2023-05-07T02:57:31.132Z,93598.94
2023-05-07T02:59:59.399Z,93598.56
2023-05-07T03:02:29.549Z,93595.59
2023-05-07T03:04:57.201Z,93596.06
2023-05-07T03:07:24.530Z,93599.44
2023-05-07T03:09:52.152Z,93596.47
2023-05-07T03:12:19.535Z,93593.09
2023-05-07T03:14:46.899Z,93599.75
2023-05-07T03:17:17.263Z,93596.38
2023-05-07T03:19:44.629Z,93592.19
2023-05-07T03:22:11.990Z,93598.41
2023-05-07T03:24:39.575Z,93598.22
2023-05-07T03:27:06.878Z,93593.16
2023-05-07T03:29:35.408Z,93601.28
2023-05-07T03:32:03.149Z,93598.59
2023-05-07T03:34:30.501Z,93595.53
2023-05-07T03:36:57.763Z,93603.00
2023-05-07T03:39:25.543Z,93587.62
2023-05-07T03:41:53.445Z,93593.69
2023-05-07T03:44:21.359Z,93593.25
2023-05-07T03:46:50.856Z,93598.16
2023-05-07T03:49:18.723Z,93595.38
2023-05-07T03:51:46.435Z,93599.44
2023-05-07T03:54:14.335Z,93595.38
2023-05-07T03:56:43.292Z,93607.22
2023-05-07T03:59:10.635Z,93608.03
2023-05-07T04:01:38.466Z,93607.69
2023-05-07T04:04:06.328Z,93610.75
2023-05-07T04:06:34.593Z,93615.16
2023-05-07T04:09:01.908Z,93612.47
2023-05-07T04:11:29.995Z,93606.13
2023-05-07T04:13:57.334Z,93619.91
2023-05-07T04:16:24.812Z,93622.50
2023-05-07T04:18:52.610Z,93622.66
2023-05-07T04:21:21.597Z,93628.91
2023-05-07T04:23:50.150Z,93636.34
2023-05-07T04:26:17.772Z,93629.37
2023-05-07T04:28:45.332Z,93630.50
2023-05-07T04:31:12.754Z,93622.19
2023-05-07T04:33:41.899Z,93634.41
2023-05-07T04:36:09.863Z,93636.78
2023-05-07T04:38:38.024Z,93641.34
2023-05-07T04:41:07.703Z,93635.28
2023-05-07T04:43:35.606Z,93646.50
2023-05-07T04:46:03.097Z,93645.25
2023-05-07T04:48:31.897Z,93643.87
2023-05-07T04:50:59.574Z,93645.03
2023-05-07T04:53:27.190Z,93646.88
2023-05-07T04:55:59.158Z,93648.75
2023-05-07T04:58:27.082Z,93647.78
2023-05-07T05:00:55.377Z,93650.75
2023-05-07T05:03:23.198Z,93652.81
2023-05-07T05:05:52.752Z,93642.66
2023-05-07T05:08:21.281Z,93647.97
2023-05-07T05:10:51.099Z,93645.66
2023-05-07T05:13:19.182Z,93639.53
2023-05-07T05:15:47.378Z,93642.94
2023-05-07T05:18:14.809Z,93637.00
2023-05-07T05:20:42.122Z,93640.81
2023-05-07T05:23:12.556Z,93635.78
2023-05-07T05:25:41.519Z,93645.16
2023-05-07T05:28:09.119Z,93638.53
2023-05-07T05:30:36.757Z,93638.06
2023-05-07T05:33:04.357Z,93634.78
2023-05-07T05:35:32.863Z,93638.22
2023-05-07T05:38:02.362Z,93638.28
2023-05-07T05:40:29.922Z,93637.94
2023-05-07T05:42:57.617Z,93637.63
2023-05-07T05:45:26.581Z,93640.28
2023-05-07T05:47:54.768Z,93636.94
2023-05-07T05:50:22.410Z,93635.16
2023-05-07T05:52:50.445Z,93635.88
2023-05-07T05:55:18.333Z,93637.28
2023-05-07T05:57:47.273Z,93634.38
2023-05-07T06:00:15.484Z,93632.38
2023-05-07T06:02:46.077Z,93626.88
2023-05-07T06:05:14.760Z,93634.41
2023-05-07T06:07:42.897Z,93621.78
2023-05-07T06:10:10.799Z,93630.28
2023-05-07T06:12:39.367Z,93638.66
2023-05-07T06:15:07.498Z,93638.97
2023-05-07T06:17:35.511Z,93634.31
2023-05-07T06:20:03.397Z,93633.50
2023-05-07T06:22:30.844Z,93630.44
2023-05-07T06:24:59.150Z,93630.00
2023-05-07T06:27:27.083Z,93622.59
2023-05-07T06:29:54.643Z,93626.69
2023-05-07T06:32:22.560Z,93624.78
2023-05-07T06:34:51.263Z,93627.88
2023-05-07T06:37:19.063Z,93622.59
2023-05-07T06:39:47.090Z,93621.13
2023-05-07T06:42:15.224Z,93612.91
2023-05-07T06:44:43.532Z,93609.41
2023-05-07T06:47:11.903Z,93607.81
2023-05-07T06:49:41.884Z,93607.59
2023-05-07T06:52:09.702Z,93596.34
2023-05-07T06:54:38.108Z,93596.28
2023-05-07T06:57:06.838Z,93588.25
2023-05-07T06:59:34.702Z,93584.31
2023-05-07T07:02:02.099Z,93580.75
2023-05-07T07:04:29.994Z,93588.63
2023-05-07T07:06:59.427Z,93583.47
2023-05-07T07:09:26.926Z,93582.03
2023-05-07T07:11:54.662Z,93581.59
2023-05-07T07:14:22.450Z,93582.75
2023-05-07T07:16:50.070Z,93577.03
2023-05-07T07:19:18.238Z,93576.25
2023-05-07T07:21:47.918Z,93582.87
2023-05-07T07:24:20.355Z,93575.75
2023-05-07T07:26:49.144Z,93573.34
2023-05-07T07:29:17.154Z,93570.97
2023-05-07T07:31:46.197Z,93573.84
2023-05-07T07:34:13.852Z,93569.63
2023-05-07T07:36:46.246Z,93576.44
2023-05-07T07:39:15.032Z,93568.25
2023-05-07T07:41:42.539Z,93567.47
2023-05-07T07:44:09.985Z,93569.50
2023-05-07T07:46:39.345Z,93565.38
2023-05-07T07:49:06.730Z,93568.69
2023-05-07T07:51:34.460Z,93565.94
2023-05-07T07:54:04.159Z,93574.03
2023-05-07T07:56:34.810Z,93566.19
2023-05-07T07:59:03.221Z,93568.47
2023-05-07T08:01:31.886Z,93560.53
2023-05-07T08:04:00.132Z,93558.09
2023-05-07T08:06:28.222Z,93556.78
2023-05-07T08:08:56.372Z,93557.59
2023-05-07T08:11:24.161Z,93556.84
2023-05-07T08:13:51.872Z,93554.66
2023-05-07T08:16:20.639Z,93551.72
2023-05-07T08:18:49.316Z,93553.59
2023-05-07T08:21:17.074Z,93561.19
2023-05-07T08:23:44.505Z,93558.16
2023-05-07T08:26:12.486Z,93558.13
2023-05-07T08:28:40.764Z,93552.34
2023-05-07T08:31:08.929Z,93551.47
2023-05-07T08:33:37.024Z,93547.13
2023-05-07T08:36:05.075Z,93542.25
2023-05-07T08:38:33.250Z,93542.22
2023-05-07T08:41:01.414Z,93535.41
2023-05-07T08:43:33.550Z,93542.09
2023-05-07T08:46:07.007Z,93542.59
2023-05-07T08:48:37.674Z,93548.03
2023-05-07T08:51:06.667Z,93544.84
2023-05-07T08:53:35.165Z,93544.53
2023-05-07T08:56:03.819Z,93541.84
2023-05-07T08:58:31.596Z,93545.37
2023-05-07T09:01:02.700Z,93544.84
2023-05-07T09:03:31.666Z,93551.47
2023-05-07T09:06:00.366Z,93550.16
2023-05-07T09:08:28.984Z,93548.16
2023-05-07T09:10:59.616Z,93545.72
2023-05-07T09:13:29.962Z,93548.09
2023-05-07T09:15:58.284Z,93547.97
2023-05-07T09:18:26.759Z,93539.81
2023-05-07T09:20:54.592Z,93547.25
2023-05-07T09:23:24.096Z,93541.25
2023-05-07T09:26:01.241Z,93540.59
2023-05-07T09:28:29.499Z,93533.94
2023-05-07T09:30:57.373Z,93540.06
2023-05-07T09:33:29.878Z,93538.16
2023-05-07T09:35:58.577Z,93531.75
2023-05-07T09:38:26.993Z,93531.56
2023-05-07T09:41:13.787Z,93526.78
2023-05-07T09:43:43.284Z,93527.75
2023-05-07T09:46:16.366Z,93528.66
2023-05-07T09:48:45.872Z,93530.28
2023-05-07T09:51:16.861Z,93527.75
2023-05-07T09:53:47.392Z,93517.31
2023-05-07T09:56:16.909Z,93520.94
2023-05-07T09:58:47.138Z,93522.13
2023-05-07T10:01:15.347Z,93523.84
2023-05-07T10:03:44.962Z,93518.22
2023-05-07T10:06:16.916Z,93514.28
2023-05-07T10:08:45.947Z,93515.72
2023-05-07T10:11:16.226Z,93512.69
2023-05-07T10:13:45.738Z,93510.47
2023-05-07T10:16:14.051Z,93502.62
2023-05-07T10:18:43.050Z,93511.62
2023-05-07T10:21:24.699Z,93498.22
2023-05-07T10:24:15.894Z,93498.16
2023-05-07T10:26:46.317Z,93490.09
2023-05-07T10:29:22.482Z,93474.41
2023-05-07T10:31:54.206Z,93485.63
2023-05-07T10:34:29.138Z,93484.03
2023-05-07T10:36:58.355Z,93478.25
2023-05-07T10:39:28.075Z,93477.06
2023-05-07T10:41:56.717Z,93477.31
2023-05-07T10:44:29.288Z,93472.06
2023-05-07T10:47:14.708Z,93466.59
2023-05-07T10:49:42.892Z,93466.97
2023-05-07T10:52:31.496Z,93462.47
2023-05-07T10:55:26.437Z,93460.03
2023-05-07T10:57:55.058Z,93461.16
2023-05-07T11:00:38.889Z,93470.69
2023-05-07T11:03:08.419Z,93462.66
2023-05-07T11:05:38.741Z,93471.25
2023-05-07T11:08:08.102Z,93469.97
2023-05-07T11:10:51.743Z,93463.16
2023-05-07T11:13:42.927Z,93461.63
2023-05-07T11:16:29.089Z,93457.97
2023-05-07T11:18:59.123Z,93459.25
2023-05-07T11:21:35.469Z,93457.66
2023-05-07T11:24:06.993Z,93454.53
2023-05-07T11:26:49.673Z,93463.22
2023-05-07T11:29:23.582Z,93459.56
2023-05-07T11:31:56.245Z,93459.06
2023-05-07T11:34:26.452Z,93454.69
2023-05-07T11:36:54.851Z,93458.19
2023-05-07T11:39:37.289Z,93454.16
2023-05-07T11:42:05.298Z,93453.13
2023-05-07T11:44:47.384Z,93457.84
2023-05-07T11:47:19.753Z,93463.13
2023-05-07T11:49:52.094Z,93455.66
2023-05-07T11:52:21.760Z,93455.22
2023-05-07T11:54:54.333Z,93454.16
2023-05-07T11:57:22.683Z,93457.06
2023-05-07T12:00:00.428Z,93452.72
2023-05-07T12:02:29.479Z,93449.72
2023-05-07T12:04:57.215Z,93449.62
2023-05-07T12:07:25.424Z,93447.25
2023-05-07T12:09:53.421Z,93445.91
2023-05-07T12:12:21.125Z,93449.19
2023-05-07T12:14:49.253Z,93439.44
2023-05-07T12:17:17.884Z,93440.38
2023-05-07T12:19:46.625Z,93433.63
2023-05-07T12:22:14.356Z,93436.94
2023-05-07T12:24:49.280Z,93439.59
2023-05-07T12:27:18.356Z,93428.84
2023-05-07T12:29:49.904Z,93433.47
2023-05-07T12:32:19.197Z,93425.59
2023-05-07T12:34:47.578Z,93428.72
2023-05-07T12:37:15.054Z,93422.94
2023-05-07T12:39:49.766Z,93423.13
2023-05-07T12:42:20.977Z,93419.47
2023-05-07T12:44:48.709Z,93415.69
2023-05-07T12:47:16.502Z,93412.53
2023-05-07T12:49:46.139Z,93410.50
2023-05-07T12:52:14.592Z,93414.00
2023-05-07T12:54:41.943Z,93409.59
2023-05-07T12:57:11.100Z,93405.16
2023-05-07T12:59:42.963Z,93400.47
2023-05-07T13:02:10.918Z,93407.63
2023-05-07T13:04:39.666Z,93398.06
2023-05-07T13:07:06.992Z,93398.22
2023-05-07T13:09:34.307Z,93396.72
2023-05-07T13:12:02.745Z,93391.50
2023-05-07T13:14:30.199Z,93391.06
2023-05-07T13:16:57.550Z,93384.28
2023-05-07T13:19:25.187Z,93385.25
2023-05-07T13:21:52.448Z,93381.56
2023-05-07T13:24:19.764Z,93382.91
2023-05-07T13:26:47.424Z,93378.31
2023-05-07T13:29:14.793Z,93374.81
2023-05-07T13:31:45.270Z,93365.94
2023-05-07T13:34:12.922Z,93365.91
2023-05-07T13:36:41.133Z,93363.09
2023-05-07T13:39:08.761Z,93365.22
2023-05-07T13:41:36.661Z,93363.78
2023-05-07T13:44:04.173Z,93367.47
2023-05-07T13:46:31.750Z,93367.63
2023-05-07T13:48:59.379Z,93367.47
2023-05-07T13:51:27.102Z,93373.28
2023-05-07T13:53:55.461Z,93373.31
2023-05-07T13:56:23.067Z,93366.25
2023-05-07T13:58:59.509Z,93371.25
2023-05-07T14:01:28.822Z,93382.63
2023-05-07T14:03:57.888Z,93369.09
2023-05-07T14:06:25.183Z,93380.81
2023-05-07T14:08:52.722Z,93380.59
2023-05-07T14:11:20.445Z,93379.81
2023-05-07T14:13:47.815Z,93385.44
2023-05-07T14:16:16.600Z,93384.84
2023-05-07T14:18:44.319Z,93386.31
2023-05-07T14:21:11.630Z,93387.00
2023-05-07T14:23:38.957Z,93393.37
2023-05-07T14:26:06.590Z,93390.22
2023-05-07T14:28:33.908Z,93394.97
2023-05-07T14:31:01.332Z,93390.88
2023-05-07T14:33:28.996Z,93383.50
2023-05-07T14:35:56.398Z,93383.19
2023-05-07T14:38:23.829Z,93375.06
2023-05-07T14:40:51.785Z,93377.00
2023-05-07T14:43:19.233Z,93378.50
2023-05-07T14:45:47.264Z,93373.62
2023-05-07T14:48:16.347Z,93372.34
2023-05-07T14:50:44.134Z,93375.06
2023-05-07T14:53:11.405Z,93369.84
2023-05-07T14:55:39.580Z,93368.56
2023-05-07T14:58:07.027Z,93372.78
2023-05-07T15:00:34.924Z,93367.22
2023-05-07T15:03:12.116Z,93367.06
2023-05-07T15:05:41.038Z,93360.78
2023-05-07T15:08:08.834Z,93368.78
2023-05-07T15:10:42.443Z,93363.56
2023-05-07T15:13:15.850Z,93366.53
2023-05-07T15:15:45.427Z,93368.78
2023-05-07T15:18:13.254Z,93363.66
2023-05-07T15:20:41.732Z,93362.13
2023-05-07T15:23:16.379Z,93363.72
2023-05-07T15:25:44.204Z,93359.56
2023-05-07T15:28:11.867Z,93358.41
2023-05-07T15:30:39.286Z,93358.12
2023-05-07T15:33:07.007Z,93361.59
2023-05-07T15:35:34.678Z,93360.19
2023-05-07T15:38:04.786Z,93362.50
2023-05-07T15:40:33.783Z,93363.97
2023-05-07T15:43:01.423Z,93361.34
2023-05-07T15:45:32.281Z,93360.78
2023-05-07T15:48:00.517Z,93352.94
2023-05-07T15:50:29.727Z,93348.28
2023-05-07T15:52:56.999Z,93356.06
2023-05-07T15:55:24.916Z,93352.41
2023-05-07T15:57:52.788Z,93350.41
2023-05-07T16:00:20.496Z,93350.38
2023-05-07T16:02:48.402Z,93346.72
2023-05-07T16:05:16.105Z,93350.84
2023-05-07T16:07:44.741Z,93353.00
2023-05-07T16:10:12.567Z,93354.78
2023-05-07T16:12:40.005Z,93343.28
2023-05-07T16:15:08.673Z,93351.03
2023-05-07T16:17:36.522Z,93354.13
2023-05-07T16:20:06.598Z,93351.81
2023-05-07T16:22:34.143Z,93357.41
2023-05-07T16:25:02.743Z,93360.31
2023-05-07T16:29:57.930Z,93360.06
2023-05-07T16:32:28.510Z,93352.88
2023-05-07T16:34:55.972Z,93347.03
2023-05-07T16:37:23.334Z,93355.41
2023-05-07T16:39:51.148Z,93357.63
2023-05-07T16:42:18.437Z,93351.28
2023-05-07T16:44:46.052Z,93356.47
2023-05-07T16:47:13.660Z,93357.94
2023-05-07T16:49:41.004Z,93356.78
2023-05-07T16:52:08.686Z,93365.09
2023-05-07T16:54:39.834Z,93371.09
2023-05-07T16:57:07.354Z,93374.34
2023-05-07T16:59:34.673Z,93378.09
2023-05-07T17:02:02.256Z,93379.59
2023-05-07T17:04:30.081Z,93383.63
2023-05-07T17:06:57.890Z,93390.31
2023-05-07T17:09:25.609Z,93388.34
2023-05-07T17:11:52.844Z,93390.91
2023-05-07T17:14:20.119Z,93391.59
2023-05-07T17:16:47.961Z,93396.16
2023-05-07T17:19:15.400Z,93399.56
2023-05-07T17:21:42.954Z,93399.09
2023-05-07T17:24:10.698Z,93401.31
2023-05-07T17:26:39.419Z,93412.12
2023-05-07T17:29:06.897Z,93408.53
2023-05-07T17:31:34.632Z,93414.56
2023-05-07T17:34:02.016Z,93411.00
2023-05-07T17:36:29.317Z,93414.66
2023-05-07T17:38:57.009Z,93413.31
2023-05-07T17:41:24.452Z,93421.53
2023-05-07T17:43:51.768Z,93418.13
2023-05-07T17:46:19.561Z,93422.38
2023-05-07T17:48:47.483Z,93425.34
2023-05-07T17:51:14.992Z,93429.69
2023-05-07T17:53:43.945Z,93429.59
2023-05-07T17:56:12.246Z,93431.09
2023-05-07T17:58:57.372Z,93436.28
2023-05-07T18:01:27.325Z,93443.91
2023-05-07T18:03:55.760Z,93439.88
2023-05-07T18:06:23.471Z,93441.94
2023-05-07T18:08:50.925Z,93446.22
2023-05-07T18:11:18.545Z,93452.53
2023-05-07T18:13:45.865Z,93453.87
2023-05-07T18:16:15.007Z,93455.41
2023-05-07T18:18:42.834Z,93456.16
2023-05-07T18:21:15.818Z,93454.03
2023-05-07T18:23:46.020Z,93459.19
2023-05-07T18:26:13.566Z,93460.69
2023-05-07T18:28:41.594Z,93470.59
2023-05-07T18:31:11.593Z,93472.09
2023-05-07T18:33:39.425Z,93473.19
2023-05-07T18:36:07.103Z,93478.53
2023-05-07T18:38:34.745Z,93484.69
2023-05-07T18:41:04.576Z,93485.75
2023-05-07T18:43:32.428Z,93488.12
2023-05-07T18:46:00.340Z,93489.25
2023-05-07T18:48:27.768Z,93501.41
2023-05-07T18:50:55.142Z,93498.28
2023-05-07T18:53:23.097Z,93506.69
2023-05-07T18:55:51.320Z,93511.56
2023-05-07T18:58:20.381Z,93514.97
2023-05-07T19:00:50.272Z,93525.28
2023-05-07T19:03:17.694Z,93525.81
2023-05-07T19:05:45.838Z,93524.75
2023-05-07T19:08:13.975Z,93533.75
2023-05-07T19:10:41.257Z,93534.78
2023-05-07T19:13:08.768Z,93530.84
2023-05-07T19:15:36.486Z,93525.84
2023-05-07T19:18:04.017Z,93525.88
2023-05-07T19:20:31.442Z,93523.22
2023-05-07T19:22:59.207Z,93536.09
2023-05-07T19:25:27.760Z,93528.22
2023-05-07T19:27:56.842Z,93530.81
2023-05-07T19:30:24.639Z,93532.66
2023-05-07T19:32:52.472Z,93539.78
2023-05-07T19:35:20.045Z,93539.00
2023-05-07T19:37:47.828Z,93541.38
2023-05-07T19:40:15.245Z,93542.12
2023-05-07T19:42:42.607Z,93541.06
2023-05-07T19:45:10.918Z,93541.88
2023-05-07T19:47:38.542Z,93549.47
2023-05-07T19:50:06.658Z,93548.38
2023-05-07T19:52:34.916Z,93550.03
2023-05-07T19:55:02.361Z,93555.50
2023-05-07T19:57:29.762Z,93556.53
2023-05-07T19:59:57.690Z,93551.56
2023-05-07T20:02:25.226Z,93556.25
2023-05-07T20:04:55.244Z,93559.44
2023-05-07T20:07:22.652Z,93565.44
2023-05-07T20:09:50.132Z,93567.34
2023-05-07T20:12:18.345Z,93562.09
2023-05-07T20:14:45.684Z,93562.78
2023-05-07T20:17:13.054Z,93566.94
2023-05-07T20:19:40.786Z,93563.78
2023-05-07T20:22:08.117Z,93562.44
2023-05-07T20:24:39.487Z,93559.31
2023-05-07T20:27:07.521Z,93568.19
2023-05-07T20:29:35.125Z,93564.69
2023-05-07T20:32:02.774Z,93575.50
2023-05-07T20:34:30.670Z,93577.13
2023-05-07T20:36:58.201Z,93576.41
2023-05-07T20:39:25.659Z,93578.38
2023-05-07T20:41:53.541Z,93582.87
2023-05-07T20:44:20.935Z,93580.69
2023-05-07T20:46:48.308Z,93583.31
2023-05-07T20:49:16.692Z,93587.72
2023-05-07T20:51:43.959Z,93584.28
2023-05-07T20:54:13.155Z,93589.53
2023-05-07T20:56:40.890Z,93590.94
2023-05-07T20:59:08.273Z,93581.81
2023-05-07T21:01:36.307Z,93585.28
2023-05-07T21:04:04.053Z,93581.94
2023-05-07T21:06:31.463Z,93588.66
2023-05-07T21:08:58.833Z,93597.03
2023-05-07T21:11:26.603Z,93606.47
2023-05-07T21:13:53.990Z,93604.56
2023-05-07T21:16:22.968Z,93602.59
2023-05-07T21:18:50.812Z,93602.16
2023-05-07T21:21:18.174Z,93597.94
2023-05-07T21:23:45.477Z,93596.69
2023-05-07T21:26:18.847Z,93603.53
2023-05-07T21:28:46.671Z,93600.81
2023-05-07T21:31:14.288Z,93597.47
2023-05-07T21:33:43.025Z,93596.31
2023-05-07T21:36:10.661Z,93604.75
2023-05-07T21:38:38.884Z,93604.19
2023-05-07T21:41:06.944Z,93604.44
2023-05-07T21:43:34.256Z,93609.03
2023-05-07T21:46:03.890Z,93609.75
2023-05-07T21:48:31.276Z,93611.44
2023-05-07T21:51:08.511Z,93615.97
2023-05-07T21:53:36.564Z,93617.16
2023-05-07T21:56:05.196Z,93618.53
2023-05-07T21:58:32.789Z,93616.84
2023-05-07T22:01:01.537Z,93610.16
2023-05-07T22:03:30.245Z,93612.72
2023-05-07T22:05:57.708Z,93618.47
2023-05-07T22:08:25.043Z,93616.56
2023-05-07T22:10:52.798Z,93615.63
2023-05-07T22:13:20.289Z,93620.16
2023-05-07T22:15:56.800Z,93617.84
2023-05-07T22:18:26.234Z,93616.44
2023-05-07T22:20:53.616Z,93621.28
2023-05-07T22:23:22.235Z,93620.66
2023-05-07T22:25:49.777Z,93615.06
2023-05-07T22:28:17.588Z,93616.50
2023-05-07T22:30:44.770Z,93620.87
2023-05-07T22:33:12.377Z,93622.47
2023-05-07T22:35:39.745Z,93615.47
2023-05-07T22:38:07.107Z,93621.31
2023-05-07T22:40:34.757Z,93621.31
2023-05-07T22:43:02.200Z,93626.09
2023-05-07T22:45:29.534Z,93623.34
2023-05-07T22:47:57.122Z,93628.13
2023-05-07T22:50:24.421Z,93619.88
2023-05-07T22:52:51.636Z,93621.28
2023-05-07T22:55:19.645Z,93616.75
2023-05-07T22:57:47.221Z,93620.72
2023-05-07T23:00:15.098Z,93609.03
2023-05-07T23:02:43.144Z,93616.00
2023-05-07T23:05:10.486Z,93613.84
2023-05-07T23:07:38.074Z,93608.75
2023-05-07T23:10:06.428Z,93612.19
2023-05-07T23:12:33.648Z,93612.97
2023-05-07T23:15:01.048Z,93607.72
2023-05-07T23:17:28.916Z,93604.13
2023-05-07T23:19:56.305Z,93600.03
2023-05-07T23:22:23.605Z,93597.66
2023-05-07T23:24:51.337Z,93592.22
2023-05-07T23:27:18.665Z,93594.91
2023-05-07T23:29:46.893Z,93588.16
2023-05-07T23:32:14.532Z,93593.31
2023-05-07T23:34:41.787Z,93585.59
2023-05-07T23:37:12.755Z,93580.97
2023-05-07T23:39:40.455Z,93574.69
2023-05-07T23:42:07.697Z,93575.97
2023-05-07T23:44:34.947Z,93574.09
2023-05-07T23:47:02.647Z,93576.06
2023-05-07T23:49:29.916Z,93576.25
2023-05-07T23:51:57.195Z,93567.94
2023-05-07T23:54:24.831Z,93568.19
2023-05-07T23:56:52.611Z,93575.41
2023-05-07T23:59:19.958Z,93568.97
